Terminal Aerodrome Forecast
Issued by NWS

Home | Current Version | Previous Version | Text Only | Print | Product List | Glossary On
Versions: 1 2 3 4 5 6 7 8 9 10 11 12 13 14 15 16 17
000
FTUS42 TJSJ 301700
TAFJPS
TAF
TJPS 301727Z 3018/3118 VRB05KT P6SM FEW030
     FM302230 00000KT P6SM FEW030
     FM311630 18010KT P6SM VCTS SCT030CB SCT060
      AMD NOT SKED TIL 310003=

USA.gov is the U.S. government's official web portal to all federal, state and local government web resources and services.